sensor_id;sensor_type;location;lat;lon;timestamp;pressure;altitude;pressure_sealevel;temperature;humidity
54600;BME280;40500;51.084;16.958;2023-03-04T00:01:56;100554.25;;;-0.23;100.00
54600;BME280;40500;51.084;16.958;2023-03-04T00:04:27;100552.71;;;-0.23;100.00
54600;BME280;40500;51.084;16.958;2023-03-04T00:07:01;100546.52;;;-0.23;100.00
54600;BME280;40500;51.084;16.958;2023-03-04T00:09:33;100539.80;;;-0.23;100.00
54600;BME280;40500;51.084;16.958;2023-03-04T00:12:05;100538.27;;;-0.22;100.00
54600;BME280;40500;51.084;16.958;2023-03-04T00:14:36;100533.98;;;-0.22;100.00
54600;BME280;40500;51.084;16.958;2023-03-04T00:17:05;100531.21;;;-0.23;100.00
54600;BME280;40500;51.084;16.958;2023-03-04T00:19:34;100528.34;;;-0.21;100.00
54600;BME280;40500;51.084;16.958;2023-03-04T00:22:06;100520.64;;;-0.19;100.00
54600;BME280;40500;51.084;16.958;2023-03-04T00:27:19;100516.69;;;-0.19;100.00
54600;BME280;40500;51.084;16.958;2023-03-04T00:29:53;100508.79;;;-0.18;100.00
54600;BME280;40500;51.084;16.958;2023-03-04T00:32:26;100507.77;;;-0.18;100.00
54600;BME280;40500;51.084;16.958;2023-03-04T00:34:57;100498.98;;;-0.18;100.00
54600;BME280;40500;51.084;16.958;2023-03-04T00:37:27;100494.05;;;-0.16;100.00
54600;BME280;40500;51.084;16.958;2023-03-04T00:40:02;100482.88;;;-0.16;100.00
54600;BME280;40500;51.084;16.958;2023-03-04T00:42:37;100478.91;;;-0.16;100.00
54600;BME280;40500;51.084;16.958;2023-03-04T00:45:10;100479.75;;;-0.17;100.00
54600;BME280;40500;51.084;16.958;2023-03-04T00:47:44;100471.66;;;-0.16;100.00
54600;BME280;40500;51.084;16.958;2023-03-04T00:50:18;100480.32;;;-0.15;100.00
54600;BME280;40500;51.084;16.958;2023-03-04T00:52:48;100476.06;;;-0.13;100.00
54600;BME280;40500;51.084;16.958;2023-03-04T00:55:20;100464.71;;;-0.13;100.00
54600;BME280;40500;51.084;16.958;2023-03-04T00:58:00;100465.40;;;-0.13;100.00
54600;BME280;40500;51.084;16.958;2023-03-04T01:00:30;100459.54;;;-0.13;100.00
54600;BME280;40500;51.084;16.958;2023-03-04T01:03:04;100454.21;;;-0.13;100.00
54600;BME280;40500;51.084;16.958;2023-03-04T01:05:39;100453.76;;;-0.11;100.00
54600;BME280;40500;51.084;16.958;2023-03-04T01:08:11;100450.19;;;-0.09;100.00
54600;BME280;40500;51.084;16.958;2023-03-04T01:10:46;100438.11;;;-0.11;100.00
54600;BME280;40500;51.084;16.958;2023-03-04T01:13:21;100443.36;;;-0.08;100.00
54600;BME280;40500;51.084;16.958;2023-03-04T01:15:56;100444.41;;;-0.07;100.00
54600;BME280;40500;51.084;16.958;2023-03-04T01:18:35;100446.84;;;-0.06;100.00
54600;BME280;40500;51.084;16.958;2023-03-04T01:21:09;100443.38;;;-0.07;100.00
54600;BME280;40500;51.084;16.958;2023-03-04T01:23:38;100437.41;;;-0.05;100.00
54600;BME280;40500;51.084;16.958;2023-03-04T01:26:08;100426.93;;;-0.04;100.00
54600;BME280;40500;51.084;16.958;2023-03-04T01:28:40;100420.91;;;-0.04;100.00
54600;BME280;40500;51.084;16.958;2023-03-04T01:31:09;100421.48;;;-0.02;100.00
54600;BME280;40500;51.084;16.958;2023-03-04T01:33:42;100411.70;;;-0.00;100.00
54600;BME280;40500;51.084;16.958;2023-03-04T01:36:11;100405.17;;;-0.00;100.00
54600;BME280;40500;51.084;16.958;2023-03-04T01:38:41;100399.52;;;0.02;100.00
54600;BME280;40500;51.084;16.958;2023-03-04T01:41:10;100394.85;;;0.01;100.00
54600;BME280;40500;51.084;16.958;2023-03-04T01:43:43;100399.04;;;0.02;100.00
54600;BME280;40500;51.084;16.958;2023-03-04T01:46:17;100394.05;;;0.03;100.00
54600;BME280;40500;51.084;16.958;2023-03-04T01:48:52;100389.56;;;0.03;100.00
54600;BME280;40500;51.084;16.958;2023-03-04T01:51:24;100385.81;;;0.04;100.00
54600;BME280;40500;51.084;16.958;2023-03-04T01:53:55;100382.59;;;0.06;100.00
54600;BME280;40500;51.084;16.958;2023-03-04T01:56:34;100373.52;;;0.07;100.00
54600;BME280;40500;51.084;16.958;2023-03-04T01:59:10;100369.62;;;0.10;100.00
54600;BME280;40500;51.084;16.958;2023-03-04T02:01:40;100370.34;;;0.11;100.00
54600;BME280;40500;51.084;16.958;2023-03-04T02:04:14;100365.54;;;0.11;100.00
54600;BME280;40500;51.084;16.958;2023-03-04T02:06:49;100360.58;;;0.13;100.00
54600;BME280;40500;51.084;16.958;2023-03-04T02:09:27;100359.21;;;0.13;100.00
54600;BME280;40500;51.084;16.958;2023-03-04T02:11:59;100359.72;;;0.13;100.00
54600;BME280;40500;51.084;16.958;2023-03-04T02:14:39;100356.48;;;0.14;100.00
54600;BME280;40500;51.084;16.958;2023-03-04T02:17:10;100362.38;;;0.16;100.00
54600;BME280;40500;51.084;16.958;2023-03-04T02:19:49;100363.48;;;0.18;100.00
54600;BME280;40500;51.084;16.958;2023-03-04T02:22:25;100357.45;;;0.18;100.00
54600;BME280;40500;51.084;16.958;2023-03-04T02:24:56;100361.73;;;0.18;100.00
54600;BME280;40500;51.084;16.958;2023-03-04T02:27:33;100365.74;;;0.20;100.00
54600;BME280;40500;51.084;16.958;2023-03-04T02:30:08;100365.56;;;0.20;100.00
54600;BME280;40500;51.084;16.958;2023-03-04T02:32:49;100356.64;;;0.21;100.00
54600;BME280;40500;51.084;16.958;2023-03-04T02:35:26;100360.91;;;0.20;100.00
54600;BME280;40500;51.084;16.958;2023-03-04T02:38:00;100362.50;;;0.21;100.00
54600;BME280;40500;51.084;16.958;2023-03-04T02:40:33;100357.87;;;0.22;100.00
54600;BME280;40500;51.084;16.958;2023-03-04T02:43:05;100357.70;;;0.22;100.00
54600;BME280;40500;51.084;16.958;2023-03-04T02:45:40;100358.08;;;0.23;100.00
54600;BME280;40500;51.084;16.958;2023-03-04T02:48:11;100349.77;;;0.21;100.00
54600;BME280;40500;51.084;16.958;2023-03-04T02:50:42;100341.52;;;0.22;100.00
54600;BME280;40500;51.084;16.958;2023-03-04T02:53:15;100340.16;;;0.23;100.00
54600;BME280;40500;51.084;16.958;2023-03-04T02:55:51;100341.19;;;0.23;100.00
54600;BME280;40500;51.084;16.958;2023-03-04T02:58:27;100337.44;;;0.24;100.00
54600;BME280;40500;51.084;16.958;2023-03-04T03:00:58;100335.20;;;0.24;100.00
54600;BME280;40500;51.084;16.958;2023-03-04T03:03:32;100336.41;;;0.24;100.00
54600;BME280;40500;51.084;16.958;2023-03-04T03:06:04;100326.74;;;0.24;100.00
54600;BME280;40500;51.084;16.958;2023-03-04T03:08:34;100328.51;;;0.25;100.00
54600;BME280;40500;51.084;16.958;2023-03-04T03:11:05;100323.19;;;0.26;100.00
54600;BME280;40500;51.084;16.958;2023-03-04T03:13:36;100325.96;;;0.27;100.00
54600;BME280;40500;51.084;16.958;2023-03-04T03:16:07;100325.11;;;0.27;100.00
54600;BME280;40500;51.084;16.958;2023-03-04T03:18:36;100328.95;;;0.29;100.00
54600;BME280;40500;51.084;16.958;2023-03-04T03:21:12;100327.77;;;0.31;100.00
54600;BME280;40500;51.084;16.958;2023-03-04T03:23:44;100330.70;;;0.30;100.00
54600;BME280;40500;51.084;16.958;2023-03-04T03:26:13;100318.49;;;0.32;100.00
54600;BME280;40500;51.084;16.958;2023-03-04T03:28:47;100314.39;;;0.32;100.00
54600;BME280;40500;51.084;16.958;2023-03-04T03:31:16;100316.14;;;0.34;100.00
54600;BME280;40500;51.084;16.958;2023-03-04T03:33:49;100315.61;;;0.33;100.00
54600;BME280;40500;51.084;16.958;2023-03-04T03:36:22;100319.26;;;0.33;100.00
54600;BME280;40500;51.084;16.958;2023-03-04T03:38:51;100317.57;;;0.35;100.00
54600;BME280;40500;51.084;16.958;2023-03-04T03:41:26;100318.44;;;0.36;100.00
54600;BME280;40500;51.084;16.958;2023-03-04T03:44:00;100317.61;;;0.37;100.00
54600;BME280;40500;51.084;16.958;2023-03-04T03:46:34;100315.23;;;0.38;100.00
54600;BME280;40500;51.084;16.958;2023-03-04T03:49:09;100316.41;;;0.38;100.00
54600;BME280;40500;51.084;16.958;2023-03-04T03:51:41;100316.42;;;0.38;100.00
54600;BME280;40500;51.084;16.958;2023-03-04T03:54:15;100308.70;;;0.40;100.00
54600;BME280;40500;51.084;16.958;2023-03-04T03:57:00;100308.91;;;0.42;100.00
54600;BME280;40500;51.084;16.958;2023-03-04T03:59:30;100302.20;;;0.42;100.00
54600;BME280;40500;51.084;16.958;2023-03-04T04:02:00;100300.84;;;0.42;100.00
54600;BME280;40500;51.084;16.958;2023-03-04T04:04:30;100295.51;;;0.43;100.00
54600;BME280;40500;51.084;16.958;2023-03-04T04:07:03;100300.71;;;0.45;100.00
54600;BME280;40500;51.084;16.958;2023-03-04T04:09:32;100297.11;;;0.45;100.00
54600;BME280;40500;51.084;16.958;2023-03-04T04:12:14;100292.30;;;0.45;100.00
54600;BME280;40500;51.084;16.958;2023-03-04T04:14:45;100292.30;;;0.45;100.00
54600;BME280;40500;51.084;16.958;2023-03-04T04:17:15;100292.33;;;0.47;100.00
54600;BME280;40500;51.084;16.958;2023-03-04T04:19:49;100293.92;;;0.49;100.00
54600;BME280;40500;51.084;16.958;2023-03-04T04:22:18;100291.84;;;0.49;100.00
54600;BME280;40500;51.084;16.958;2023-03-04T04:24:54;100286.17;;;0.49;100.00
54600;BME280;40500;51.084;16.958;2023-03-04T04:27:23;100286.39;;;0.51;100.00
54600;BME280;40500;51.084;16.958;2023-03-04T04:29:55;100288.83;;;0.52;100.00
54600;BME280;40500;51.084;16.958;2023-03-04T04:32:28;100283.81;;;0.51;100.00
54600;BME280;40500;51.084;16.958;2023-03-04T04:34:57;100282.45;;;0.53;100.00
54600;BME280;40500;51.084;16.958;2023-03-04T04:37:35;100285.56;;;0.52;100.00
54600;BME280;40500;51.084;16.958;2023-03-04T04:40:12;100280.60;;;0.54;100.00
54600;BME280;40500;51.084;16.958;2023-03-04T04:42:43;100280.11;;;0.55;100.00
54600;BME280;40500;51.084;16.958;2023-03-04T04:45:22;100276.67;;;0.56;100.00
54600;BME280;40500;51.084;16.958;2023-03-04T04:47:58;100270.66;;;0.56;100.00
54600;BME280;40500;51.084;16.958;2023-03-04T04:50:34;100267.79;;;0.58;100.00
54600;BME280;40500;51.084;16.958;2023-03-04T04:53:08;100259.54;;;0.59;100.00
54600;BME280;40500;51.084;16.958;2023-03-04T04:55:41;100259.06;;;0.61;100.00
54600;BME280;40500;51.084;16.958;2023-03-04T04:58:13;100245.93;;;0.59;100.00
54600;BME280;40500;51.084;16.958;2023-03-04T05:00:56;100244.58;;;0.61;100.00
54600;BME280;40500;51.084;16.958;2023-03-04T05:03:30;100238.73;;;0.62;100.00
54600;BME280;40500;51.084;16.958;2023-03-04T05:06:08;100238.06;;;0.62;100.00
54600;BME280;40500;51.084;16.958;2023-03-04T05:08:38;100238.25;;;0.63;100.00
54600;BME280;40500;51.084;16.958;2023-03-04T05:11:13;100228.44;;;0.63;100.00
54600;BME280;40500;51.084;16.958;2023-03-04T05:13:54;100225.33;;;0.63;100.00
54600;BME280;40500;51.084;16.958;2023-03-04T05:16:38;100220.52;;;0.63;100.00
54600;BME280;40500;51.084;16.958;2023-03-04T05:19:14;100221.05;;;0.65;100.00
54600;BME280;40500;51.084;16.958;2023-03-04T05:21:45;100219.67;;;0.65;100.00
54600;BME280;40500;51.084;16.958;2023-03-04T05:24:15;100228.99;;;0.66;100.00
54600;BME280;40500;51.084;16.958;2023-03-04T05:26:45;100234.04;;;0.67;100.00
54600;BME280;40500;51.084;16.958;2023-03-04T05:29:14;100242.67;;;0.69;100.00
54600;BME280;40500;51.084;16.958;2023-03-04T05:31:45;100232.69;;;0.69;100.00
54600;BME280;40500;51.084;16.958;2023-03-04T05:34:24;100236.71;;;0.72;100.00
54600;BME280;40500;51.084;16.958;2023-03-04T05:36:56;100230.53;;;0.73;100.00
54600;BME280;40500;51.084;16.958;2023-03-04T05:39:42;100234.92;;;0.76;100.00
54600;BME280;40500;51.084;16.958;2023-03-04T05:42:17;100233.73;;;0.77;100.00
54600;BME280;40500;51.084;16.958;2023-03-04T05:44:46;100232.74;;;0.80;100.00
54600;BME280;40500;51.084;16.958;2023-03-04T05:47:17;100239.54;;;0.84;100.00
54600;BME280;40500;51.084;16.958;2023-03-04T05:49:56;100233.52;;;0.85;100.00
54600;BME280;40500;51.084;16.958;2023-03-04T05:52:41;100232.56;;;0.87;100.00
54600;BME280;40500;51.084;16.958;2023-03-04T05:55:12;100224.67;;;0.90;100.00
54600;BME280;40500;51.084;16.958;2023-03-04T05:57:49;100222.64;;;0.91;100.00
54600;BME280;40500;51.084;16.958;2023-03-04T06:00:25;100231.48;;;0.95;100.00
54600;BME280;40500;51.084;16.958;2023-03-04T06:02:56;100234.47;;;0.97;100.00
54600;BME280;40500;51.084;16.958;2023-03-04T06:05:33;100231.60;;;0.99;100.00
54600;BME280;40500;51.084;16.958;2023-03-04T06:08:05;100232.66;;;1.01;100.00
54600;BME280;40500;51.084;16.958;2023-03-04T06:10:37;100233.36;;;1.01;100.00
54600;BME280;40500;51.084;16.958;2023-03-04T06:13:10;100230.67;;;1.05;100.00
54600;BME280;40500;51.084;16.958;2023-03-04T06:15:45;100227.60;;;1.07;100.00
54600;BME280;40500;51.084;16.958;2023-03-04T06:18:17;100237.63;;;1.08;100.00
54600;BME280;40500;51.084;16.958;2023-03-04T06:20:58;100236.45;;;1.10;100.00
54600;BME280;40500;51.084;16.958;2023-03-04T06:23:32;100236.82;;;1.11;100.00
54600;BME280;40500;51.084;16.958;2023-03-04T06:26:03;100238.74;;;1.12;100.00
54600;BME280;40500;51.084;16.958;2023-03-04T06:28:40;100242.90;;;1.13;100.00
54600;BME280;40500;51.084;16.958;2023-03-04T06:31:11;100247.23;;;1.14;100.00
54600;BME280;40500;51.084;16.958;2023-03-04T06:33:46;100245.88;;;1.15;100.00
54600;BME280;40500;51.084;16.958;2023-03-04T06:36:19;100249.69;;;1.16;100.00
54600;BME280;40500;51.084;16.958;2023-03-04T06:38:48;100248.33;;;1.17;100.00
54600;BME280;40500;51.084;16.958;2023-03-04T06:41:19;100250.04;;;1.16;100.00
54600;BME280;40500;51.084;16.958;2023-03-04T06:43:53;100250.58;;;1.18;100.00
54600;BME280;40500;51.084;16.958;2023-03-04T06:46:26;100260.81;;;1.20;100.00
54600;BME280;40500;51.084;16.958;2023-03-04T06:49:04;100258.25;;;1.22;100.00
54600;BME280;40500;51.084;16.958;2023-03-04T06:51:37;100261.19;;;1.22;100.00
54600;BME280;40500;51.084;16.958;2023-03-04T06:54:13;100264.67;;;1.24;100.00
54600;BME280;40500;51.084;16.958;2023-03-04T06:56:44;100266.91;;;1.24;100.00
54600;BME280;40500;51.084;16.958;2023-03-04T06:59:20;100267.77;;;1.24;100.00
54600;BME280;40500;51.084;16.958;2023-03-04T07:01:52;100270.23;;;1.26;100.00
54600;BME280;40500;51.084;16.958;2023-03-04T07:04:30;100266.10;;;1.27;100.00
54600;BME280;40500;51.084;16.958;2023-03-04T07:07:15;100270.77;;;1.27;100.00
54600;BME280;40500;51.084;16.958;2023-03-04T07:09:55;100271.33;;;1.29;100.00
54600;BME280;40500;51.084;16.958;2023-03-04T07:12:30;100265.51;;;1.31;100.00
54600;BME280;40500;51.084;16.958;2023-03-04T07:15:14;100259.82;;;1.32;100.00
54600;BME280;40500;51.084;16.958;2023-03-04T07:17:48;100261.94;;;1.34;100.00
54600;BME280;40500;51.084;16.958;2023-03-04T07:20:29;100271.66;;;1.37;100.00
54600;BME280;40500;51.084;16.958;2023-03-04T07:23:04;100271.84;;;1.38;100.00
54600;BME280;40500;51.084;16.958;2023-03-04T07:25:46;100272.04;;;1.40;100.00
54600;BME280;40500;51.084;16.958;2023-03-04T07:28:20;100274.66;;;1.41;100.00
54600;BME280;40500;51.084;16.958;2023-03-04T07:30:49;100273.83;;;1.42;100.00
54600;BME280;40500;51.084;16.958;2023-03-04T07:33:22;100272.30;;;1.43;100.00
54600;BME280;40500;51.084;16.958;2023-03-04T07:36:03;100273.84;;;1.43;100.00
54600;BME280;40500;51.084;16.958;2023-03-04T07:38:37;100273.68;;;1.44;100.00
54600;BME280;40500;51.084;16.958;2023-03-04T07:41:17;100274.04;;;1.45;100.00
54600;BME280;40500;51.084;16.958;2023-03-04T07:43:56;100273.04;;;1.46;100.00
54600;BME280;40500;51.084;16.958;2023-03-04T07:46:31;100265.64;;;1.48;100.00
54600;BME280;40500;51.084;16.958;2023-03-04T07:49:14;100267.92;;;1.50;100.00
54600;BME280;40500;51.084;16.958;2023-03-04T07:51:52;100266.91;;;1.51;100.00
54600;BME280;40500;51.084;16.958;2023-03-04T07:54:29;100259.67;;;1.51;100.00
54600;BME280;40500;51.084;16.958;2023-03-04T07:57:02;100259.67;;;1.51;100.00
54600;BME280;40500;51.084;16.958;2023-03-04T07:59:37;100254.50;;;1.53;100.00
54600;BME280;40500;51.084;16.958;2023-03-04T08:02:11;100257.99;;;1.53;100.00
54600;BME280;40500;51.084;16.958;2023-03-04T08:04:52;100255.44;;;1.55;100.00
54600;BME280;40500;51.084;16.958;2023-03-04T08:07:27;100247.13;;;1.54;100.00
54600;BME280;40500;51.084;16.958;2023-03-04T08:09:57;100252.36;;;1.58;100.00
54600;BME280;40500;51.084;16.958;2023-03-04T08:12:26;100245.00;;;1.61;100.00
54600;BME280;40500;51.084;16.958;2023-03-04T08:14:56;100247.62;;;1.63;100.00
54600;BME280;40500;51.084;16.958;2023-03-04T08:17:25;100249.55;;;1.64;100.00
54600;BME280;40500;51.084;16.958;2023-03-04T08:19:56;100244.38;;;1.65;100.00
54600;BME280;40500;51.084;16.958;2023-03-04T08:22:25;100244.77;;;1.68;100.00
54600;BME280;40500;51.084;16.958;2023-03-04T08:24:54;100245.63;;;1.68;100.00
54600;BME280;40500;51.084;16.958;2023-03-04T08:27:23;100244.42;;;1.67;100.00
54600;BME280;40500;51.084;16.958;2023-03-04T08:29:52;100237.02;;;1.69;100.00
54600;BME280;40500;51.084;16.958;2023-03-04T08:32:21;100237.61;;;1.73;100.00
54600;BME280;40500;51.084;16.958;2023-03-04T08:34:50;100238.88;;;1.76;100.00
54600;BME280;40500;51.084;16.958;2023-03-04T08:37:19;100237.22;;;1.80;100.00
54600;BME280;40500;51.084;16.958;2023-03-04T08:39:48;100231.92;;;1.84;100.00
54600;BME280;40500;51.084;16.958;2023-03-04T08:42:17;100235.30;;;1.90;100.00
54600;BME280;40500;51.084;16.958;2023-03-04T08:44:46;100229.85;;;1.94;100.00
54600;BME280;40500;51.084;16.958;2023-03-04T08:47:14;100227.20;;;2.01;100.00
54600;BME280;40500;51.084;16.958;2023-03-04T08:49:43;100227.80;;;2.07;100.00
54600;BME280;40500;51.084;16.958;2023-03-04T08:52:12;100229.95;;;2.11;100.00
54600;BME280;40500;51.084;16.958;2023-03-04T08:54:41;100227.58;;;2.14;100.00
54600;BME280;40500;51.084;16.958;2023-03-04T08:57:10;100230.55;;;2.16;100.00
54600;BME280;40500;51.084;16.958;2023-03-04T08:59:39;100229.91;;;2.20;100.00
54600;BME280;40500;51.084;16.958;2023-03-04T09:02:08;100229.10;;;2.24;100.00
54600;BME280;40500;51.084;16.958;2023-03-04T09:04:37;100223.14;;;2.29;100.00
54600;BME280;40500;51.084;16.958;2023-03-04T09:07:06;100224.43;;;2.35;100.00
54600;BME280;40500;51.084;16.958;2023-03-04T09:09:36;100224.97;;;2.36;100.00
54600;BME280;40500;51.084;16.958;2023-03-04T09:12:05;100224.80;;;2.36;100.00
54600;BME280;40500;51.084;16.958;2023-03-04T09:14:34;100221.91;;;2.39;100.00
54600;BME280;40500;51.084;16.958;2023-03-04T09:17:03;100229.27;;;2.47;100.00
54600;BME280;40500;51.084;16.958;2023-03-04T09:19:32;100226.19;;;2.50;100.00
54600;BME280;40500;51.084;16.958;2023-03-04T09:22:01;100226.09;;;2.54;100.00
54600;BME280;40500;51.084;16.958;2023-03-04T09:24:31;100227.50;;;2.56;100.00
54600;BME280;40500;51.084;16.958;2023-03-04T09:27:03;100221.17;;;2.60;100.00
54600;BME280;40500;51.084;16.958;2023-03-04T09:29:32;100219.14;;;2.64;100.00
54600;BME280;40500;51.084;16.958;2023-03-04T09:32:01;100225.02;;;2.65;100.00
54600;BME280;40500;51.084;16.958;2023-03-04T09:34:30;100223.98;;;2.65;100.00
54600;BME280;40500;51.084;16.958;2023-03-04T09:36:59;100222.63;;;2.66;100.00
54600;BME280;40500;51.084;16.958;2023-03-04T09:39:27;100220.90;;;2.67;100.00
54600;BME280;40500;51.084;16.958;2023-03-04T09:41:57;100219.52;;;2.67;100.00
54600;BME280;40500;51.084;16.958;2023-03-04T09:44:27;100212.80;;;2.68;100.00
54600;BME280;40500;51.084;16.958;2023-03-04T09:46:58;100210.92;;;2.71;100.00
54600;BME280;40500;51.084;16.958;2023-03-04T09:49:27;100213.76;;;2.75;100.00
54600;BME280;40500;51.084;16.958;2023-03-04T09:51:59;100208.60;;;2.78;100.00
54600;BME280;40500;51.084;16.958;2023-03-04T09:54:39;100207.05;;;2.79;100.00
54600;BME280;40500;51.084;16.958;2023-03-04T09:57:16;100206.17;;;2.78;100.00
54600;BME280;40500;51.084;16.958;2023-03-04T09:59:50;100205.98;;;2.75;100.00
54600;BME280;40500;51.084;16.958;2023-03-04T10:02:23;100203.05;;;2.77;100.00
54600;BME280;40500;51.084;16.958;2023-03-04T10:04:58;100202.93;;;2.82;100.00
54600;BME280;40500;51.084;16.958;2023-03-04T10:07:28;100200.70;;;2.84;100.00
54600;BME280;40500;51.084;16.958;2023-03-04T10:10:02;100201.10;;;2.87;100.00
54600;BME280;40500;51.084;16.958;2023-03-04T10:12:31;100197.34;;;2.89;100.00
54600;BME280;40500;51.084;16.958;2023-03-04T10:15:02;100189.73;;;2.92;100.00
54600;BME280;40500;51.084;16.958;2023-03-04T10:17:33;100184.45;;;2.97;100.00
54600;BME280;40500;51.084;16.958;2023-03-04T10:20:05;100184.83;;;3.01;100.00
54600;BME280;40500;51.084;16.958;2023-03-04T10:22:39;100182.11;;;3.06;100.00
54600;BME280;40500;51.084;16.958;2023-03-04T10:25:15;100180.45;;;3.11;100.00
54600;BME280;40500;51.084;16.958;2023-03-04T10:27:48;100178.06;;;3.15;100.00
54600;BME280;40500;51.084;16.958;2023-03-04T10:30:19;100176.86;;;3.16;100.00
54600;BME280;40500;51.084;16.958;2023-03-04T10:32:51;100170.33;;;3.20;100.00
54600;BME280;40500;51.084;16.958;2023-03-04T10:35:20;100174.17;;;3.23;100.00
54600;BME280;40500;51.084;16.958;2023-03-04T10:37:50;100166.39;;;3.24;100.00
54600;BME280;40500;51.084;16.958;2023-03-04T10:40:21;100166.27;;;3.29;100.00
54600;BME280;40500;51.084;16.958;2023-03-04T10:42:52;100159.22;;;3.34;100.00
54600;BME280;40500;51.084;16.958;2023-03-04T10:45:22;100157.55;;;3.41;100.00
54600;BME280;40500;51.084;16.958;2023-03-04T10:47:52;100156.38;;;3.45;100.00
54600;BME280;40500;51.084;16.958;2023-03-04T10:50:22;100151.05;;;3.50;100.00
54600;BME280;40500;51.084;16.958;2023-03-04T10:52:51;100151.63;;;3.56;100.00
54600;BME280;40500;51.084;16.958;2023-03-04T10:55:22;100150.84;;;3.65;100.00
54600;BME280;40500;51.084;16.958;2023-03-04T10:57:52;100148.96;;;3.67;100.00
54600;BME280;40500;51.084;16.958;2023-03-04T11:00:28;100144.63;;;3.69;100.00
54600;BME280;40500;51.084;16.958;2023-03-04T11:03:22;100138.80;;;3.76;100.00
54600;BME280;40500;51.084;16.958;2023-03-04T11:06:04;100149.10;;;3.86;100.00
54600;BME280;40500;51.084;16.958;2023-03-04T11:08:33;100138.08;;;3.97;100.00
54600;BME280;40500;51.084;16.958;2023-03-04T11:11:02;100130.35;;;4.09;100.00
54600;BME280;40500;51.084;16.958;2023-03-04T11:13:31;100126.93;;;4.16;100.00
54600;BME280;40500;51.084;16.958;2023-03-04T11:16:01;100130.05;;;4.17;100.00
54600;BME280;40500;51.084;16.958;2023-03-04T11:18:33;100130.89;;;4.14;100.00
54600;BME280;40500;51.084;16.958;2023-03-04T11:21:11;100129.80;;;4.02;100.00
54600;BME280;40500;51.084;16.958;2023-03-04T11:23:42;100137.54;;;3.93;100.00
54600;BME280;40500;51.084;16.958;2023-03-04T11:26:13;100135.79;;;3.92;100.00
54600;BME280;40500;51.084;16.958;2023-03-04T11:28:45;100134.06;;;3.92;100.00
54600;BME280;40500;51.084;16.958;2023-03-04T11:31:19;100132.33;;;3.92;100.00
54600;BME280;40500;51.084;16.958;2023-03-04T11:33:50;100136.66;;;3.91;100.00
54600;BME280;40500;51.084;16.958;2023-03-04T11:36:24;100133.54;;;3.90;100.00
54600;BME280;40500;51.084;16.958;2023-03-04T11:38:57;100128.58;;;4.00;100.00
54600;BME280;40500;51.084;16.958;2023-03-04T11:41:29;100127.80;;;4.15;100.00
54600;BME280;40500;51.084;16.958;2023-03-04T11:43:59;100115.92;;;4.29;100.00
54600;BME280;40500;51.084;16.958;2023-03-04T11:46:38;100120.31;;;4.43;100.00
54600;BME280;40500;51.084;16.958;2023-03-04T11:49:17;100117.23;;;4.50;100.00
54600;BME280;40500;51.084;16.958;2023-03-04T11:51:53;100118.64;;;4.53;100.00
54600;BME280;40500;51.084;16.958;2023-03-04T11:54:28;100112.02;;;4.52;100.00
54600;BME280;40500;51.084;16.958;2023-03-04T11:57:01;100112.38;;;4.50;100.00
54600;BME280;40500;51.084;16.958;2023-03-04T11:59:51;100111.65;;;4.45;100.00
54600;BME280;40500;51.084;16.958;2023-03-04T12:02:22;100111.63;;;4.41;100.00
54600;BME280;40500;51.084;16.958;2023-03-04T12:05:00;100106.11;;;4.48;100.00
54600;BME280;40500;51.084;16.958;2023-03-04T12:07:38;100101.25;;;4.46;100.00
54600;BME280;40500;51.084;16.958;2023-03-04T12:10:12;100099.86;;;4.46;100.00
54600;BME280;40500;51.084;16.958;2023-03-04T12:12:51;100099.52;;;4.47;100.00
54600;BME280;40500;51.084;16.958;2023-03-04T12:15:26;100096.92;;;4.47;100.00
54600;BME280;40500;51.084;16.958;2023-03-04T12:18:00;100095.17;;;4.46;100.00
54600;BME280;40500;51.084;16.958;2023-03-04T12:20:36;100094.00;;;4.54;100.00
54600;BME280;40500;51.084;16.958;2023-03-04T12:23:15;100090.23;;;4.63;100.00
54600;BME280;40500;51.084;16.958;2023-03-04T12:25:49;100091.61;;;4.61;100.00
54600;BME280;40500;51.084;16.958;2023-03-04T12:28:25;100085.68;;;4.52;100.00
54600;BME280;40500;51.084;16.958;2023-03-04T12:33:51;100087.34;;;4.38;100.00
54600;BME280;40500;51.084;16.958;2023-03-04T12:36:25;100084.08;;;4.44;100.00
54600;BME280;40500;51.084;16.958;2023-03-04T12:39:03;100079.40;;;4.44;100.00
54600;BME280;40500;51.084;16.958;2023-03-04T12:41:36;100084.30;;;4.52;100.00
54600;BME280;40500;51.084;16.958;2023-03-04T12:44:12;100077.20;;;4.59;100.00
54600;BME280;40500;51.084;16.958;2023-03-04T12:46:45;100081.05;;;4.63;100.00
54600;BME280;40500;51.084;16.958;2023-03-04T12:49:21;100082.40;;;4.57;100.00
54600;BME280;40500;51.084;16.958;2023-03-04T12:51:56;100077.35;;;4.53;100.00
54600;BME280;40500;51.084;16.958;2023-03-04T12:54:29;100079.60;;;4.52;100.00
54600;BME280;40500;51.084;16.958;2023-03-04T12:56:59;100079.95;;;4.50;100.00
54600;BME280;40500;51.084;16.958;2023-03-04T12:59:32;100075.10;;;4.50;100.00
54600;BME280;40500;51.084;16.958;2023-03-04T13:02:07;100077.17;;;4.50;100.00
54600;BME280;40500;51.084;16.958;2023-03-04T13:04:39;100077.00;;;4.51;100.00
54600;BME280;40500;51.084;16.958;2023-03-04T13:07:17;100077.36;;;4.53;100.00
54600;BME280;40500;51.084;16.958;2023-03-04T13:09:49;100072.33;;;4.53;100.00
54600;BME280;40500;51.084;16.958;2023-03-04T13:12:21;100069.02;;;4.50;100.00
54600;BME280;40500;51.084;16.958;2023-03-04T13:17:42;100061.54;;;4.45;100.00